佐賀空港の過去48時間の天気

佐賀空港 (Saga)

現在時刻: 7/23 03:40 JST (7/22 18:40 UTC) 以下の時間は現地時間です。

過去48時間のMETAR気象情報
時間 風向 風速(m/s) 視程 気温(℃) 湿度(%) 気圧(hPa) 天気現象
23 03:00 北東 2 10km以上 27 89 1009
23 02:00 北北東 2 10km以上 27 89 1009
23 01:00 不定 1 10km以上 27 89 1009
22 21:00 北北東 3 10km以上 28 89 1010
22 20:00 北東 3 10km以上 29 84 1009 弱いしゅう雨
22 19:24 北北東 5 10km以上 30 75 1009
22 19:00 北西 3 10km以上 30 79 1009
22 18:35 西 3 10km以上 30 79 1009
22 18:00 南南西 6 10km以上 31 75 1008
22 17:00 3 10km以上 32 71 1008 周辺でしゅう雨
22 16:00 南西 5 10km以上 34 60 1008
22 15:00 南南西 5 10km以上 34 60 1008
22 14:26 南西 6 10km以上 35 60 1008
22 14:00 南西 5 10km以上 33 67 1008
22 13:00 南西 5 10km以上 33 67 1008
22 12:00 南南西 4 10km以上 33 63 1009
22 11:00 2 10km以上 33 67 1009
22 10:44 南西 2 10km以上 33 67 1009
22 10:00 南南東 2 10km以上 31 70 1009
22 09:00 2 10km以上 31 66 1009
22 08:00 東北東 3 10km以上 30 70 1009
22 07:00 北東 3 10km以上 28 79 1009
22 06:00 北東 3 10km以上 27 84 1008
22 04:00 北北東 3 10km以上 27 84 1008
22 03:00 北北東 2 10km以上 28 74 1008
22 02:00 東北東 2 10km以上 28 74 1008
22 01:00 2 10km以上 28 74 1008
21 21:00 6 10km以上 30 62 1008
21 20:00 6 10km以上 31 62 1008
21 19:00 東南東 7 10km以上 32 59 1008
21 18:00 東南東 7 10km以上 33 56 1007
21 17:00 東南東 8 10km以上 34 53 1007
21 16:00 東南東 8 10km以上 34 53 1007
21 15:00 東南東 6 10km以上 33 59 1008
21 14:00 東南東 5 10km以上 34 60 1008
21 13:00 東南東 5 10km以上 34 60 1008
21 12:28 東南東 4 10km以上 33 59 1008
21 12:00 東南東 4 10km以上 31 66 1009
21 11:00 東南東 6 10km以上 31 66 1009
21 10:00 南東 2 10km以上 32 63 1009
21 09:00 東北東 2 10km以上 31 62 1009
21 08:00 北東 3 10km以上 30 66 1009
21 07:00 北北東 3 10km以上 29 74 1009
21 06:00 北北東 3 10km以上 27 79 1009
RJFS 221800Z 04004KT 9999 FEW035 SCT045 BKN/// 27/25 Q1009
RJFS 221700Z 03003KT 9999 FEW035 BKN/// 27/25 Q1009
RJFS 221600Z VRB02KT 9999 FEW030 BKN170 27/25 Q1009
RJFS 221200Z 03006KT 9999 FEW040 SCT060 BKN/// 28/26 Q1010
RJFS 221100Z 05006KT 9999 -SHRA FEW030 SCT040 BKN150 29/26 Q1009
RJFS 221024Z 02010KT 9999 FEW030 SCT060 BKN150 30/25 Q1009 RMK 1CU030 3SC060 6AC150 A2981
RJFS 221000Z 32006KT 9999 FEW030 SCT060 BKN150 30/26 Q1009
RJFS 220935Z 27006KT 230V300 9999 FEW030 SCT060 BKN150 30/26 Q1009 RMK 1CU030 3SC060 6AC150 A2980
RJFS 220900Z 21011KT 9999 FEW030 SCT060 BKN100 31/26 Q1008
RJFS 220800Z 19005KT 9999 VCSH FEW035 SCT060 BKN150 32/26 Q1008
RJFS 220700Z 22009KT 9999 FEW035 SCT150 BKN/// 34/25 Q1008
RJFS 220600Z 21010KT 9999 FEW035 SCT160 BKN/// 34/25 Q1008
RJFS 220526Z 22012KT 9999 FEW035 BKN160 BKN/// 35/26 Q1008 RMK 1CU035 5AC160 A2977
RJFS 220500Z 22009KT 9999 FEW035 BKN160 BKN/// 33/26 Q1008
RJFS 220400Z 23009KT 9999 FEW030 BKN160 BKN/// 33/26 Q1008
RJFS 220300Z 21007KT 9999 FEW030 BKN160 BKN/// 33/25 Q1009
RJFS 220200Z 19004KT 150V220 9999 FEW030 BKN160 BKN/// 33/26 Q1009
RJFS 220144Z 22004KT 9999 FEW030 BKN160 BKN/// 33/26 Q1009 RMK 1CU030 5AC160 A2980
RJFS 220100Z 15003KT 090V190 9999 FEW030 BKN160 BKN/// 31/25 Q1009
RJFS 220000Z 08003KT 010V130 9999 FEW030 BKN160 BKN/// 31/24 Q1009
RJFS 212300Z 06006KT 040V100 9999 FEW030 SCT150 BKN/// 30/24 Q1009
RJFS 212200Z 05006KT 9999 FEW040 SCT130 BKN/// 28/24 Q1009
RJFS 212100Z 05005KT 9999 FEW030 SCT060 BKN/// 27/24 Q1008
RJFS 211900Z 02005KT 9999 FEW040 BKN/// 27/24 Q1008
RJFS 211800Z 03004KT 9999 FEW020 SCT050 BKN/// 28/23 Q1008
RJFS 211700Z 06003KT 9999 FEW050 BKN/// 28/23 Q1008
RJFS 211600Z 08004KT 9999 FEW050 SCT170 BKN190 28/23 Q1008
RJFS 211200Z 09012KT 9999 FEW040 SCT170 30/22 Q1008
RJFS 211100Z 10011KT 9999 FEW040 SCT160 31/23 Q1008
RJFS 211000Z 11013KT 9999 FEW040 SCT060 BKN/// 32/23 Q1008
RJFS 210900Z 12013KT 9999 FEW040 BKN/// 33/23 Q1007
RJFS 210800Z 11015KT 9999 FEW040 BKN/// 34/23 Q1007
RJFS 210700Z 11016KT 9999 FEW040 SCT140 BKN/// 34/23 Q1007
RJFS 210600Z 11012KT 9999 FEW035 SCT110 BKN/// 33/24 Q1008
RJFS 210500Z 11010KT 9999 FEW035 SCT100 BKN130 34/25 Q1008
RJFS 210400Z 12010KT 9999 FEW035 SCT100 BKN/// 34/25 Q1008
RJFS 210328Z 11008KT 080V140 9999 FEW035 SCT100 BKN150 33/24 Q1008 RMK 1CU035 3AC100 7AC150 A2979
RJFS 210300Z 12007KT 9999 FEW035 SCT100 BKN150 31/24 Q1009
RJFS 210200Z 12012KT 9999 FEW035 SCT100 BKN150 31/24 Q1009
RJFS 210100Z 13003KT 070V170 9999 FEW035 SCT100 BKN/// 32/24 Q1009
RJFS 210000Z 06003KT 350V140 9999 FEW040 BKN/// 31/23 Q1009
RJFS 202300Z 05006KT 010V070 9999 FEW040 BKN/// 30/23 Q1009
RJFS 202200Z 03006KT 9999 FEW035 BKN/// 29/24 Q1009
RJFS 202100Z 03006KT 9999 FEW035 BKN/// 27/23 Q1009